Time;durP1;ratioP1;P1;durP2;ratioP2;P2;SDS_P1;SDS_P2;PMS_P1;PMS_P2;Temp;Humidity;BMP_temperature;BMP_pressure;BME280_temperature;BME280_humidity;BME280_pressure;Samples;Min_cycle;Max_cycle;Signal;HPM_P1;HPM_P2
2023/06/09 00:00:55;;;;;;;;;;;18.40;92.20;;;;;;6328942;28;20333;-74
2023/06/09 00:03:58;;;;;;;;;;;18.20;92.50;;;;;;6311247;28;20425;-74
2023/06/09 00:06:59;;;;;;;;;;;18.10;92.70;;;;;;6304946;28;20321;-75
2023/06/09 00:10:01;;;;;;;;;;;18.00;93.40;;;;;;6304898;28;20374;-75
2023/06/09 00:13:03;;;;;;;;;;;18.00;93.20;;;;;;6304295;28;20360;-75
2023/06/09 00:16:05;;;;;;;;;;;18.00;93.30;;;;;;6326296;28;20362;-75
2023/06/09 00:19:09;;;;;;;;;;;18.10;93.10;;;;;;6329386;28;19920;-74
2023/06/09 00:22:13;;;;;;;;;;;18.00;93.30;;;;;;6329184;28;19920;-74
2023/06/09 00:25:20;;;;;;;;;;;18.00;93.70;;;;;;6329077;28;19982;-76
2023/06/09 00:28:22;;;;;;;;;;;18.00;93.70;;;;;;6329642;28;19932;-73
2023/06/09 00:31:23;;;;;;;;;;;18.10;93.90;;;;;;6327603;28;19927;-73
2023/06/09 00:34:26;;;;;;;;;;;18.10;94.00;;;;;;6338480;28;19920;-74
2023/06/09 00:37:28;;;;;;;;;;;18.10;94.10;;;;;;6328161;28;20285;-76
2023/06/09 00:40:30;;;;;;;;;;;18.00;93.80;;;;;;6328222;28;20362;-75
2023/06/09 00:43:33;;;;;;;;;;;17.80;93.60;;;;;;6305611;28;19920;-74
2023/06/09 00:46:35;;;;;;;;;;;17.60;94.20;;;;;;6328608;28;19927;-76
2023/06/09 00:49:38;;;;;;;;;;;17.70;94.40;;;;;;6326384;28;19936;-73
2023/06/09 00:52:40;;;;;;;;;;;17.60;94.50;;;;;;6326871;28;19931;-74
2023/06/09 00:55:42;;;;;;;;;;;17.70;94.50;;;;;;6327951;28;19924;-74
2023/06/09 00:58:44;;;;;;;;;;;17.70;94.40;;;;;;6348833;28;20369;-75
2023/06/09 01:01:46;;;;;;;;;;;17.70;94.20;;;;;;6354026;28;19920;-76
2023/06/09 01:04:52;;;;;;;;;;;17.60;94.30;;;;;;6339673;28;20333;-73
2023/06/09 01:07:57;;;;;;;;;;;17.60;94.00;;;;;;6315495;28;20389;-75
2023/06/09 01:11:02;;;;;;;;;;;17.50;94.30;;;;;;6328355;28;19924;-75
2023/06/09 01:14:09;;;;;;;;;;;17.40;94.80;;;;;;6328039;28;20006;-74
2023/06/09 01:17:16;;;;;;;;;;;17.50;94.70;;;;;;6326347;28;19920;-75
2023/06/09 01:20:27;;;;;;;;;;;17.40;94.70;;;;;;6327627;28;19965;-76
2023/06/09 01:23:35;;;;;;;;;;;17.50;94.70;;;;;;6328042;28;20034;-73
2023/06/09 01:26:40;;;;;;;;;;;17.40;94.80;;;;;;6334629;28;19920;-74
2023/06/09 01:29:43;;;;;;;;;;;17.30;94.70;;;;;;6352465;28;19919;-76
2023/06/09 01:32:45;;;;;;;;;;;17.30;95.00;;;;;;6327249;28;20384;-75
2023/06/09 01:35:47;;;;;;;;;;;17.30;94.90;;;;;;6327147;28;19943;-75
2023/06/09 01:38:49;;;;;;;;;;;17.20;95.10;;;;;;6302688;28;19920;-74
2023/06/09 01:41:52;;;;;;;;;;;17.10;94.90;;;;;;6323245;28;19920;-74
2023/06/09 01:44:54;;;;;;;;;;;17.20;94.80;;;;;;6326979;28;19920;-76
2023/06/09 01:47:56;;;;;;;;;;;17.20;95.50;;;;;;6325479;28;19928;-75
2023/06/09 01:51:03;;;;;;;;;;;17.20;95.80;;;;;;6326960;28;19927;-75
2023/06/09 01:54:09;;;;;;;;;;;17.20;95.80;;;;;;6348324;28;19920;-76
2023/06/09 01:57:17;;;;;;;;;;;17.10;95.50;;;;;;6336551;28;19930;-74
2023/06/09 02:00:20;;;;;;;;;;;17.10;95.40;;;;;;6341734;28;20049;-73
2023/06/09 02:03:23;;;;;;;;;;;17.00;96.30;;;;;;6325447;28;19920;-75
2023/06/09 02:06:24;;;;;;;;;;;17.00;96.40;;;;;;6324614;28;20057;-74
2023/06/09 02:09:26;;;;;;;;;;;17.00;96.10;;;;;;6326898;28;19926;-76
2023/06/09 02:12:33;;;;;;;;;;;16.80;95.20;;;;;;6326261;28;19920;-73
2023/06/09 02:15:34;;;;;;;;;;;16.50;95.70;;;;;;6326151;28;20335;-76
2023/06/09 02:18:37;;;;;;;;;;;16.40;96.40;;;;;;6325297;28;20006;-74
2023/06/09 02:21:38;;;;;;;;;;;16.40;96.60;;;;;;6326056;28;20384;-75
2023/06/09 02:24:40;;;;;;;;;;;16.50;96.70;;;;;;6327925;28;19932;-74
2023/06/09 02:27:43;;;;;;;;;;;16.50;96.60;;;;;;6325174;28;19920;-76
2023/06/09 02:30:45;;;;;;;;;;;16.50;96.60;;;;;;6338543;28;19920;-75
2023/06/09 02:33:47;;;;;;;;;;;16.30;96.80;;;;;;6351030;28;19924;-75
2023/06/09 02:36:52;;;;;;;;;;;16.40;96.90;;;;;;6348650;28;20396;-76
2023/06/09 02:39:54;;;;;;;;;;;16.40;96.10;;;;;;6341526;28;20384;-75
2023/06/09 02:42:57;;;;;;;;;;;16.20;96.30;;;;;;6325819;28;19920;-75
2023/06/09 02:45:58;;;;;;;;;;;16.10;96.40;;;;;;6325900;28;20289;-74
2023/06/09 02:49:00;;;;;;;;;;;16.10;96.70;;;;;;6352607;28;19934;-76
2023/06/09 02:52:02;;;;;;;;;;;16.10;97.00;;;;;;6351390;28;19920;-76
2023/06/09 02:55:04;;;;;;;;;;;16.10;96.90;;;;;;6338901;28;19920;-75
2023/06/09 02:58:07;;;;;;;;;;;16.10;96.70;;;;;;6333349;28;20395;-74
2023/06/09 03:01:11;;;;;;;;;;;16.10;96.70;;;;;;6329764;28;20388;-75
2023/06/09 03:04:17;;;;;;;;;;;16.10;96.50;;;;;;6335102;28;19999;-76
2023/06/09 03:07:20;;;;;;;;;;;16.00;96.70;;;;;;6329209;28;20393;-75
2023/06/09 03:10:22;;;;;;;;;;;15.90;96.80;;;;;;6325240;28;20361;-75
2023/06/09 03:13:25;;;;;;;;;;;15.80;96.70;;;;;;6325310;28;19920;-75
2023/06/09 03:16:28;;;;;;;;;;;15.80;96.80;;;;;;6332843;28;19920;-75
2023/06/09 03:19:30;;;;;;;;;;;15.70;97.00;;;;;;6327155;28;19923;-76
2023/06/09 03:22:32;;;;;;;;;;;15.80;97.30;;;;;;6349519;28;19920;-75
2023/06/09 03:25:33;;;;;;;;;;;15.90;97.20;;;;;;6327242;28;19967;-74
2023/06/09 03:28:36;;;;;;;;;;;15.90;97.10;;;;;;6343774;28;19920;-74
2023/06/09 03:31:38;;;;;;;;;;;15.90;97.60;;;;;;6349898;28;19920;-74
2023/06/09 03:34:41;;;;;;;;;;;15.80;97.70;;;;;;6335460;28;19920;-75
2023/06/09 03:37:42;;;;;;;;;;;16.00;97.80;;;;;;6323210;28;20361;-72
2023/06/09 03:40:44;;;;;;;;;;;15.90;97.90;;;;;;6325823;28;19920;-76
2023/06/09 03:43:47;;;;;;;;;;;16.00;97.90;;;;;;6337460;28;20390;-75
2023/06/09 03:46:49;;;;;;;;;;;16.00;97.90;;;;;;6319691;28;19943;-74
2023/06/09 03:49:51;;;;;;;;;;;16.10;98.00;;;;;;6299570;28;19930;-75
2023/06/09 03:52:53;;;;;;;;;;;16.10;98.00;;;;;;6299584;28;19925;-75
2023/06/09 03:55:55;;;;;;;;;;;16.10;97.80;;;;;;6332333;28;19919;-75
2023/06/09 03:58:58;;;;;;;;;;;16.10;97.60;;;;;;6338574;28;20456;-74
2023/06/09 04:01:59;;;;;;;;;;;16.10;96.90;;;;;;6324610;28;19920;-76
2023/06/09 04:05:02;;;;;;;;;;;16.00;96.90;;;;;;6324164;28;19931;-75
2023/06/09 04:08:04;;;;;;;;;;;16.00;96.90;;;;;;6298772;28;19920;-75
2023/06/09 04:11:06;;;;;;;;;;;15.90;96.70;;;;;;6313544;28;19993;-74
2023/06/09 04:14:09;;;;;;;;;;;15.90;96.90;;;;;;6323240;28;19920;-74
2023/06/09 04:17:11;;;;;;;;;;;15.90;97.20;;;;;;6340978;28;19924;-75
2023/06/09 04:20:13;;;;;;;;;;;15.90;97.70;;;;;;6348568;28;20010;-74
2023/06/09 04:23:14;;;;;;;;;;;16.00;98.10;;;;;;6348360;28;20447;-76
2023/06/09 04:26:16;;;;;;;;;;;16.00;98.20;;;;;;6337664;28;19928;-74
2023/06/09 04:29:22;;;;;;;;;;;16.00;98.20;;;;;;6327087;28;19963;-75
2023/06/09 04:32:25;;;;;;;;;;;16.00;98.50;;;;;;6328400;28;19920;-75
2023/06/09 04:35:27;;;;;;;;;;;16.10;98.50;;;;;;6330097;28;19927;-76
2023/06/09 04:38:32;;;;;;;;;;;16.10;98.40;;;;;;6331022;28;20262;-74
2023/06/09 04:41:35;;;;;;;;;;;16.10;98.60;;;;;;6327365;28;20388;-74
2023/06/09 04:44:39;;;;;;;;;;;16.10;99.00;;;;;;6330517;28;19920;-73
2023/06/09 04:47:41;;;;;;;;;;;16.20;98.90;;;;;;6302788;28;20354;-77
2023/06/09 04:50:44;;;;;;;;;;;16.20;99.20;;;;;;6327742;28;19920;-75
2023/06/09 04:53:46;;;;;;;;;;;16.10;99.30;;;;;;6325647;28;19924;-76
2023/06/09 04:56:52;;;;;;;;;;;16.10;99.50;;;;;;6335424;28;19959;-74
2023/06/09 04:59:55;;;;;;;;;;;16.10;99.60;;;;;;6328303;28;21681;-75
2023/06/09 05:02:58;;;;;;;;;;;16.10;99.70;;;;;;6326917;28;19920;-74
2023/06/09 05:05:59;;;;;;;;;;;16.20;99.80;;;;;;6337378;28;19927;-75
2023/06/09 05:09:01;;;;;;;;;;;16.20;99.70;;;;;;6346951;28;20029;-76
2023/06/09 05:12:04;;;;;;;;;;;16.30;99.90;;;;;;6330746;28;20345;-76
2023/06/09 05:17:42;;;;;;;;;;;16.30;99.90;;;;;;6300778;27;20013;-75
2023/06/09 05:20:44;;;;;;;;;;;16.40;99.90;;;;;;6296376;28;19925;-77
2023/06/09 05:23:46;;;;;;;;;;;16.40;99.90;;;;;;6299824;28;20290;-74
2023/06/09 05:26:48;;;;;;;;;;;16.40;99.90;;;;;;6279345;28;19932;-76
2023/06/09 05:29:50;;;;;;;;;;;16.40;99.90;;;;;;6285334;28;19932;-75
2023/06/09 05:32:53;;;;;;;;;;;16.40;99.90;;;;;;6296232;28;19931;-76
2023/06/09 05:35:55;;;;;;;;;;;16.40;99.90;;;;;;6282046;28;19932;-75
2023/06/09 05:38:57;;;;;;;;;;;16.50;99.90;;;;;;6296185;28;19929;-75
2023/06/09 05:42:00;;;;;;;;;;;16.50;99.90;;;;;;6296096;28;19947;-78
2023/06/09 05:45:02;;;;;;;;;;;16.50;99.90;;;;;;6290453;28;19978;-75
2023/06/09 05:48:05;;;;;;;;;;;16.50;99.90;;;;;;6294982;28;20035;-76
2023/06/09 05:51:07;;;;;;;;;;;16.60;99.90;;;;;;6291372;28;19929;-77
2023/06/09 05:54:09;;;;;;;;;;;16.70;99.90;;;;;;6293783;28;19925;-76
2023/06/09 05:57:11;;;;;;;;;;;16.80;99.90;;;;;;6295391;28;19931;-74
2023/06/09 06:00:14;;;;;;;;;;;16.80;99.90;;;;;;6294709;28;19932;-75
2023/06/09 06:03:17;;;;;;;;;;;16.80;99.90;;;;;;6286145;28;19925;-75
2023/06/09 06:06:19;;;;;;;;;;;16.90;99.90;;;;;;6276471;28;19925;-76
2023/06/09 06:09:21;;;;;;;;;;;16.90;99.90;;;;;;6293761;28;19932;-76
2023/06/09 06:12:22;;;;;;;;;;;17.00;99.90;;;;;;6296262;28;19972;-75
2023/06/09 06:15:24;;;;;;;;;;;17.10;99.90;;;;;;6305894;28;19924;-76
2023/06/09 06:18:27;;;;;;;;;;;17.10;99.90;;;;;;6323309;28;20289;-77
2023/06/09 06:21:29;;;;;;;;;;;17.20;99.90;;;;;;6320902;28;19924;-75
2023/06/09 06:24:30;;;;;;;;;;;17.30;99.90;;;;;;6318061;28;19924;-74
2023/06/09 06:27:32;;;;;;;;;;;17.30;99.90;;;;;;6310645;28;19924;-74
2023/06/09 06:30:34;;;;;;;;;;;17.50;99.90;;;;;;6301069;28;20313;-73
2023/06/09 06:33:39;;;;;;;;;;;17.50;99.90;;;;;;6293176;28;20605;-76
2023/06/09 06:36:41;;;;;;;;;;;17.50;99.90;;;;;;6270144;28;20014;-73
2023/06/09 06:39:42;;;;;;;;;;;17.50;99.90;;;;;;6233962;28;19925;-72
2023/06/09 06:42:44;;;;;;;;;;;17.60;99.90;;;;;;6225999;28;20387;-74
2023/06/09 06:45:46;;;;;;;;;;;17.70;99.90;;;;;;6253808;28;19925;-76
2023/06/09 06:48:50;;;;;;;;;;;17.80;99.90;;;;;;6268134;28;19928;-75
2023/06/09 06:51:51;;;;;;;;;;;17.80;99.90;;;;;;6275928;28;19932;-75
2023/06/09 06:54:53;;;;;;;;;;;17.90;99.90;;;;;;6255334;28;20279;-76
2023/06/09 06:57:55;;;;;;;;;;;18.00;99.60;;;;;;6243648;28;20291;-76
2023/06/09 07:00:56;;;;;;;;;;;18.00;99.30;;;;;;6228223;28;19932;-75
2023/06/09 07:04:00;;;;;;;;;;;18.10;99.30;;;;;;6236522;28;19929;-76
2023/06/09 07:07:02;;;;;;;;;;;18.20;99.00;;;;;;6251298;28;20004;-75
2023/06/09 07:10:05;;;;;;;;;;;18.30;98.20;;;;;;6250976;28;19932;-75
2023/06/09 07:13:07;;;;;;;;;;;18.30;98.10;;;;;;6250986;28;19925;-75
2023/06/09 07:16:08;;;;;;;;;;;18.40;97.60;;;;;;6250086;28;19936;-76
2023/06/09 07:19:11;;;;;;;;;;;18.50;97.10;;;;;;6251044;28;19932;-73
2023/06/09 07:22:13;;;;;;;;;;;18.60;97.90;;;;;;6245515;28;20418;-71
2023/06/09 07:25:16;;;;;;;;;;;18.80;97.20;;;;;;6248391;28;19929;-71
2023/06/09 07:28:18;;;;;;;;;;;18.80;96.70;;;;;;6260134;28;19936;-72
2023/06/09 07:31:20;;;;;;;;;;;18.90;96.30;;;;;;6252741;28;20286;-72
2023/06/09 07:34:26;;;;;;;;;;;19.10;96.60;;;;;;6262012;28;19925;-71
2023/06/09 07:37:28;;;;;;;;;;;19.20;96.60;;;;;;6273376;28;20020;-71
2023/06/09 07:40:30;;;;;;;;;;;19.30;96.80;;;;;;6274591;28;19947;-71
2023/06/09 07:43:32;;;;;;;;;;;19.40;96.50;;;;;;6254792;28;19925;-70
2023/06/09 07:46:33;;;;;;;;;;;19.50;96.40;;;;;;6232921;28;20002;-71
2023/06/09 07:49:36;;;;;;;;;;;19.60;96.70;;;;;;6249573;28;19960;-72
2023/06/09 07:52:38;;;;;;;;;;;19.70;96.70;;;;;;6260100;28;19928;-71
2023/06/09 07:55:40;;;;;;;;;;;19.70;96.20;;;;;;6253981;28;20464;-73
2023/06/09 07:58:42;;;;;;;;;;;19.90;96.00;;;;;;6249821;28;20394;-71
2023/06/09 08:01:44;;;;;;;;;;;20.00;96.10;;;;;;6251553;28;20286;-72
2023/06/09 08:04:47;;;;;;;;;;;20.10;95.80;;;;;;6249740;28;19931;-72
2023/06/09 08:07:49;;;;;;;;;;;20.20;95.80;;;;;;6252231;28;19951;-72
2023/06/09 08:10:51;;;;;;;;;;;20.30;95.50;;;;;;6252676;28;19929;-71
2023/06/09 08:13:53;;;;;;;;;;;20.40;94.90;;;;;;6275809;28;20021;-70
2023/06/09 08:16:54;;;;;;;;;;;20.40;94.60;;;;;;6273432;28;19924;-73
2023/06/09 08:19:57;;;;;;;;;;;20.50;94.20;;;;;;6255691;28;19925;-76
2023/06/09 08:22:59;;;;;;;;;;;20.60;94.10;;;;;;6248680;28;19933;-75
2023/06/09 08:26:01;;;;;;;;;;;20.70;93.70;;;;;;6274285;28;20283;-73
2023/06/09 08:29:03;;;;;;;;;;;20.70;93.30;;;;;;6274239;28;19931;-77
2023/06/09 08:32:06;;;;;;;;;;;20.70;92.70;;;;;;6252610;28;19925;-77
2023/06/09 08:35:10;;;;;;;;;;;20.80;92.50;;;;;;6249151;28;19925;-75
2023/06/09 08:38:11;;;;;;;;;;;21.00;92.40;;;;;;6249016;28;19925;-78
2023/06/09 08:41:15;;;;;;;;;;;21.10;91.90;;;;;;6247726;28;19933;-76
2023/06/09 08:44:17;;;;;;;;;;;21.20;91.70;;;;;;6255634;28;20291;-75
2023/06/09 08:47:21;;;;;;;;;;;21.30;90.50;;;;;;6249279;28;19936;-72
2023/06/09 08:50:25;;;;;;;;;;;21.40;90.40;;;;;;6246965;28;19929;-74
2023/06/09 08:53:27;;;;;;;;;;;21.50;90.50;;;;;;6250433;28;19925;-76
2023/06/09 08:56:29;;;;;;;;;;;21.60;90.00;;;;;;6246873;28;19929;-77
2023/06/09 08:59:34;;;;;;;;;;;21.60;88.60;;;;;;6249339;28;19925;-75
2023/06/09 09:02:35;;;;;;;;;;;21.70;88.60;;;;;;6250034;28;19926;-78
2023/06/09 09:05:38;;;;;;;;;;;21.80;88.50;;;;;;6268499;28;20000;-74
2023/06/09 09:08:40;;;;;;;;;;;21.90;85.80;;;;;;6269120;28;19932;-74
2023/06/09 09:11:44;;;;;;;;;;;22.00;85.90;;;;;;6266708;28;20453;-75
2023/06/09 09:14:46;;;;;;;;;;;22.10;86.00;;;;;;6253856;28;20016;-74
2023/06/09 09:17:48;;;;;;;;;;;22.20;83.00;;;;;;6249157;28;20071;-73
2023/06/09 09:20:51;;;;;;;;;;;22.30;82.70;;;;;;6248805;28;19930;-75
2023/06/09 09:23:57;;;;;;;;;;;22.40;81.40;;;;;;6249138;28;20268;-75
2023/06/09 09:26:59;;;;;;;;;;;22.50;80.90;;;;;;6248866;28;19925;-77
2023/06/09 09:30:01;;;;;;;;;;;22.50;79.50;;;;;;6248549;28;19925;-73
2023/06/09 09:33:07;;;;;;;;;;;22.60;77.40;;;;;;6248929;28;19932;-76
2023/06/09 09:36:10;;;;;;;;;;;22.70;78.20;;;;;;6248316;28;19925;-76
2023/06/09 09:39:12;;;;;;;;;;;22.70;76.60;;;;;;6248796;28;19925;-74
2023/06/09 09:42:15;;;;;;;;;;;22.80;76.40;;;;;;6249056;28;19932;-74
2023/06/09 09:45:26;;;;;;;;;;;22.90;75.80;;;;;;6248517;28;19931;-75
2023/06/09 09:48:28;;;;;;;;;;;23.00;76.80;;;;;;6248326;28;19925;-74
2023/06/09 09:51:33;;;;;;;;;;;23.00;76.00;;;;;;6248071;28;20395;-76
2023/06/09 09:54:36;;;;;;;;;;;23.10;76.20;;;;;;6248527;28;19929;-75
2023/06/09 09:57:39;;;;;;;;;;;23.10;76.70;;;;;;6248048;28;19933;-76
2023/06/09 10:00:46;;;;;;;;;;;23.20;77.30;;;;;;6247892;28;20383;-76
2023/06/09 10:03:49;;;;;;;;;;;23.30;77.00;;;;;;6251421;28;19951;-73
2023/06/09 10:06:54;;;;;;;;;;;23.30;75.50;;;;;;6252668;28;19936;-75
2023/06/09 10:09:57;;;;;;;;;;;23.40;75.30;;;;;;6252323;28;20039;-75
2023/06/09 10:13:00;;;;;;;;;;;23.50;75.60;;;;;;6252374;28;19925;-75
2023/06/09 10:16:02;;;;;;;;;;;23.50;75.60;;;;;;6251954;28;20286;-75
2023/06/09 10:19:03;;;;;;;;;;;23.70;76.20;;;;;;6252212;28;19925;-75
2023/06/09 10:22:07;;;;;;;;;;;23.70;74.80;;;;;;6252014;28;19925;-76
2023/06/09 10:25:12;;;;;;;;;;;23.80;73.80;;;;;;6252064;28;19958;-76
2023/06/09 10:28:15;;;;;;;;;;;23.80;71.90;;;;;;6252298;28;19925;-74
2023/06/09 10:31:18;;;;;;;;;;;23.80;72.00;;;;;;6246973;28;20379;-72
2023/06/09 10:34:19;;;;;;;;;;;23.80;73.90;;;;;;6250510;28;19948;-73
2023/06/09 10:37:30;;;;;;;;;;;23.80;73.40;;;;;;6251262;28;19955;-71
2023/06/09 10:40:37;;;;;;;;;;;23.50;75.00;;;;;;6261904;28;19951;-72
2023/06/09 10:43:58;;;;;;;;;;;23.50;72.70;;;;;;6276294;28;19925;-71
2023/06/09 10:46:59;;;;;;;;;;;23.60;72.30;;;;;;6276291;28;19925;-72
2023/06/09 10:50:02;;;;;;;;;;;23.60;71.60;;;;;;6251691;28;20425;-71
2023/06/09 10:53:15;;;;;;;;;;;23.60;72.10;;;;;;6250969;28;19925;-71
2023/06/09 10:56:40;;;;;;;;;;;23.60;71.40;;;;;;6246201;28;19932;-70
2023/06/09 11:00:11;;;;;;;;;;;23.70;71.20;;;;;;6240643;28;19932;-71
2023/06/09 11:03:30;;;;;;;;;;;23.90;70.50;;;;;;6228986;28;19933;-70
2023/06/09 11:06:32;;;;;;;;;;;23.90;71.30;;;;;;6247757;28;19932;-71
2023/06/09 11:09:35;;;;;;;;;;;23.90;69.80;;;;;;6250228;28;19925;-74
2023/06/09 11:12:42;;;;;;;;;;;23.90;69.40;;;;;;6249262;28;19926;-70
2023/06/09 11:16:02;;;;;;;;;;;24.00;69.60;;;;;;6249954;28;19925;-71
2023/06/09 11:19:21;;;;;;;;;;;24.10;67.60;;;;;;6225832;28;19926;-72
2023/06/09 11:22:23;;;;;;;;;;;24.20;67.20;;;;;;6248047;28;19932;-71
2023/06/09 11:25:37;;;;;;;;;;;24.40;68.60;;;;;;6247885;28;19932;-72
2023/06/09 11:28:41;;;;;;;;;;;24.50;68.60;;;;;;6244994;28;19929;-72
2023/06/09 11:31:49;;;;;;;;;;;24.60;69.10;;;;;;6246967;28;19940;-72
2023/06/09 11:34:56;;;;;;;;;;;24.90;69.50;;;;;;6247414;28;20004;-70
2023/06/09 11:37:59;;;;;;;;;;;25.20;68.40;;;;;;6244461;28;19929;-70
2023/06/09 11:41:04;;;;;;;;;;;25.30;68.50;;;;;;6269937;28;19925;-72
2023/06/09 11:44:05;;;;;;;;;;;25.20;66.90;;;;;;6271860;28;19933;-70
2023/06/09 11:47:25;;;;;;;;;;;25.30;67.20;;;;;;6248850;28;19925;-75
2023/06/09 11:50:36;;;;;;;;;;;25.40;67.90;;;;;;6246475;28;20371;-79
2023/06/09 11:53:38;;;;;;;;;;;25.60;66.10;;;;;;6246384;28;19929;-76
2023/06/09 11:56:42;;;;;;;;;;;25.70;66.20;;;;;;6246018;28;19929;-79
2023/06/09 11:59:45;;;;;;;;;;;25.70;65.40;;;;;;6246602;28;19975;-77
2023/06/09 12:02:48;;;;;;;;;;;25.80;64.90;;;;;;6242032;28;19929;-78
2023/06/09 12:05:51;;;;;;;;;;;25.90;65.00;;;;;;6251049;28;19932;-81
2023/06/09 12:08:52;;;;;;;;;;;26.00;65.40;;;;;;6234925;28;19933;-77
2023/06/09 12:11:55;;;;;;;;;;;26.10;65.60;;;;;;6231719;28;20290;-78
2023/06/09 12:14:57;;;;;;;;;;;26.30;66.10;;;;;;6245331;28;19932;-76
2023/06/09 12:18:01;;;;;;;;;;;26.30;65.60;;;;;;6249778;28;19929;-77
2023/06/09 12:21:03;;;;;;;;;;;26.30;66.70;;;;;;6251150;28;20465;-76
